Time;durP1;ratioP1;P1;durP2;ratioP2;P2;SDS_P1;SDS_P2;PMS_P1;PMS_P2;Temp;Humidity;BMP_temperature;BMP_pressure;BME280_temperature;BME280_humidity;BME280_pressure;Samples;Min_cycle;Max_cycle;Signal;HPM_P1;HPM_P2
2022/05/30 00:02:12;;;;;;;9.75;7.42;;;;;;;16.41;100.00;90296.56;1699396;83;21016;-60
2022/05/30 00:04:39;;;;;;;15.88;8.05;;;;;;;16.35;100.00;90287.16;1724799;82;21065;-66
2022/05/30 00:07:07;;;;;;;11.38;7.83;;;;;;;16.32;100.00;88213.17;1724020;81;22066;-61
2022/05/30 00:09:35;;;;;;;11.28;7.35;;;;;;;16.26;100.00;89756.86;1765503;80;21049;-64
2022/05/30 00:12:05;;;;;;;12.98;6.78;;;;;;;16.22;100.00;86645.77;1785117;80;21554;-65
2022/05/30 00:14:32;;;;;;;10.05;6.50;;;;;;;16.18;100.00;80783.05;1784917;80;21053;-67
2022/05/30 00:16:59;;;;;;;12.33;7.35;;;;;;;16.14;100.00;80089.09;1708345;83;21749;-66
2022/05/30 00:19:26;;;;;;;9.03;6.62;;;;;;;16.09;100.00;76127.27;1782316;80;20957;-67
2022/05/30 00:21:56;;;;;;;11.45;7.15;;;;;;;16.06;100.00;73718.97;1782217;80;21017;-61
2022/05/30 00:24:23;;;;;;;13.58;6.58;;;;;;;16.00;100.00;72166.84;1782313;79;21530;-62
2022/05/30 00:26:51;;;;;;;14.68;6.85;;;;;;;16.01;100.00;64967.12;1782255;79;20938;-67
2022/05/30 00:29:19;;;;;;;15.72;6.62;;;;;;;15.97;100.00;66161.00;1782150;80;21053;-66
2022/05/30 21:41:52;;;;;;;6.83;4.05;;;;;;;18.77;71.31;152370.91;1763252;80;21097;-68
2022/05/30 21:44:19;;;;;;;9.38;3.67;;;;;;;18.74;71.20;152363.08;1763348;80;21228;-68
2022/05/30 21:46:46;;;;;;;6.75;3.67;;;;;;;18.67;71.35;152344.77;1763298;80;21049;-66
2022/05/30 21:49:14;;;;;;;7.50;4.00;;;;;;;18.61;71.46;152331.73;1763483;81;21025;-68
2022/05/30 21:51:41;;;;;;;8.50;3.70;;;;;;;18.61;71.35;152331.73;1763030;81;21009;-68
2022/05/30 21:54:10;;;;;;;7.17;3.55;;;;;;;18.62;71.07;152333.06;1763235;80;20981;-66
2022/05/30 21:56:41;;;;;;;8.88;3.90;;;;;;;18.64;71.08;152336.95;1763592;81;20989;-68
2022/05/30 21:59:10;;;;;;;6.95;3.45;;;;;;;18.66;71.00;152342.16;1763094;80;20989;-68
2022/05/30 22:01:37;;;;;;;6.62;3.98;;;;;;;18.65;71.10;152339.56;1763124;80;21393;-67
2022/05/30 22:04:04;;;;;;;7.92;3.75;;;;;;;18.67;71.11;152344.77;1763066;80;21041;-68
2022/05/30 22:06:33;;;;;;;6.53;3.95;;;;;;;18.69;70.95;152350.03;1763402;81;21009;-68
2022/05/30 22:09:00;;;;;;;6.22;3.70;;;;;;;18.67;71.08;152346.09;1767247;80;21447;-67
2022/05/30 22:11:29;;;;;;;8.78;3.80;;;;;;;18.70;70.96;152352.64;1772240;79;21044;-68
2022/05/30 22:13:56;;;;;;;6.87;3.70;;;;;;;18.68;71.07;152347.38;1772231;81;20978;-67
2022/05/30 22:16:33;;;;;;;6.08;3.85;;;;;;;18.65;71.22;152340.89;1772655;79;20965;-67
2022/05/30 22:19:03;;;;;;;9.70;4.00;;;;;;;18.62;71.35;152333.06;1772613;81;21009;-68
2022/05/30 22:21:30;;;;;;;6.37;3.62;;;;;;;18.56;71.61;152318.70;1772420;81;21244;-66
2022/05/30 22:23:57;;;;;;;5.92;4.22;;;;;;;18.53;71.98;152310.88;1772359;81;21037;-68
2022/05/30 22:26:26;;;;;;;7.60;4.17;;;;;;;18.46;72.21;152292.62;1772821;80;21034;-67
2022/05/30 22:28:54;;;;;;;7.37;4.37;;;;;;;18.39;72.69;152274.33;1773079;81;21480;-66
2022/05/30 22:31:25;;;;;;;8.28;4.17;;;;;;;18.31;73.11;152254.75;1772807;81;21006;-62
2022/05/30 22:33:52;;;;;;;9.30;4.62;;;;;;;18.27;73.39;152245.66;1772627;81;21192;-62
2022/05/30 22:36:23;;;;;;;6.65;4.28;;;;;;;18.18;73.83;152222.14;1772738;79;21493;-61
2022/05/30 22:38:50;;;;;;;7.70;4.00;;;;;;;18.13;74.20;152209.11;1772612;79;21026;-60
2022/05/30 22:41:17;;;;;;;9.43;4.83;;;;;;;18.03;74.65;152185.66;1759674;81;21049;-60
2022/05/30 22:43:45;;;;;;;7.67;4.87;;;;;;;17.96;75.20;152166.03;1772449;79;21020;-61
2022/05/30 22:46:12;;;;;;;7.03;5.10;;;;;;;17.90;75.66;152151.67;1772815;79;21893;-60
2022/05/30 22:48:39;;;;;;;8.45;4.80;;;;;;;17.82;76.21;152130.81;1772742;79;21013;-60
2022/05/30 22:51:14;;;;;;;11.20;5.12;;;;;;;17.79;76.85;152122.95;1772775;79;21060;-61
2022/05/30 22:53:45;;;;;;;7.33;5.00;;;;;;;17.70;77.27;152102.09;1772289;79;21309;-60
2022/05/30 22:56:13;;;;;;;9.60;5.42;;;;;;;17.60;78.05;152077.31;1772791;79;20931;-63
2022/05/30 22:58:40;;;;;;;8.15;5.35;;;;;;;17.56;78.71;152066.91;1772805;81;21546;-60
2022/05/30 23:01:09;;;;;;;8.70;5.40;;;;;;;17.50;79.07;152051.27;1772646;81;21105;-60
2022/05/30 23:03:37;;;;;;;7.75;5.65;;;;;;;17.41;79.76;152029.09;1772438;81;21021;-61
2022/05/30 23:06:05;;;;;;;11.78;6.25;;;;;;;17.34;80.40;152010.81;1772717;81;21029;-60
2022/05/30 23:08:32;;;;;;;10.15;5.92;;;;;;;17.22;81.14;151979.55;1771727;81;21011;-61
2022/05/30 23:11:10;;;;;;;9.93;5.80;;;;;;;17.12;82.17;151956.05;1768200;81;21345;-61
2022/05/30 23:13:44;;;;;;;10.13;5.60;;;;;;;17.03;82.93;151932.61;1767770;81;21025;-60
2022/05/30 23:16:13;;;;;;;8.63;5.67;;;;;;;16.97;84.00;151916.94;1768257;81;20951;-61
2022/05/30 23:18:43;;;;;;;7.78;5.33;;;;;;;16.90;84.98;151901.25;1768167;80;21058;-60
2022/05/30 23:21:13;;;;;;;9.35;6.00;;;;;;;16.84;85.69;151885.62;1768121;81;21051;-61
2022/05/30 23:23:42;;;;;;;12.45;6.65;;;;;;;16.81;86.56;151877.81;1744401;81;21930;-61
2022/05/30 23:26:09;;;;;;;8.85;5.80;;;;;;;16.79;87.22;151872.59;1768048;81;20995;-61
2022/05/30 23:28:36;;;;;;;10.25;6.37;;;;;;;16.78;87.89;151868.67;1768400;80;20955;-61
2022/05/30 23:31:05;;;;;;;12.90;6.30;;;;;;;16.77;88.45;151867.41;1768186;81;21074;-61
2022/05/30 23:33:32;;;;;;;10.50;6.05;;;;;;;16.75;88.87;151863.47;1771586;79;21084;-61
2022/05/30 23:35:59;;;;;;;13.98;6.55;;;;;;;16.73;89.43;151858.25;1772356;79;21198;-63
2022/05/30 23:38:26;;;;;;;9.23;6.10;;;;;;;16.69;90.27;151846.52;1772491;81;21006;-62
2022/05/30 23:44:34;;;;;;;8.28;5.80;;;;;;;16.66;91.07;151838.70;1772554;79;21040;-62
2022/05/30 23:46:09;;;;;;;11.68;6.15;;;;;;;16.63;91.78;151830.89;1772303;81;21056;-62
2022/05/30 23:48:38;;;;;;;10.63;6.58;;;;;;;16.58;92.39;151820.47;1772703;79;21507;-63
2022/05/30 23:51:06;;;;;;;9.75;6.60;;;;;;;16.57;92.89;151817.88;1772577;79;21506;-61
2022/05/30 23:53:34;;;;;;;10.28;6.45;;;;;;;16.53;93.41;151807.45;1772596;81;21006;-62
2022/05/30 23:56:02;;;;;;;9.00;6.62;;;;;;;16.50;94.13;151799.64;1771673;79;21053;-61
2022/05/30 23:58:32;;;;;;;10.15;6.75;;;;;;;16.47;94.79;151791.83;1772436;81;21060;-61
